createdAt,value
2024-02-16T00:02:02.971Z,31.80
2024-02-16T00:04:29.855Z,31.07
2024-02-16T00:06:56.849Z,36.87
2024-02-16T00:09:23.826Z,31.60
2024-02-16T00:11:52.131Z,34.13
2024-02-16T00:14:19.031Z,29.20
2024-02-16T00:16:45.839Z,34.27
2024-02-16T00:19:12.850Z,30.53
2024-02-16T00:21:43.262Z,26.23
2024-02-16T00:24:10.972Z,29.27
2024-02-16T00:26:38.411Z,32.00
2024-02-16T00:29:05.865Z,29.57
2024-02-16T00:31:32.867Z,27.57
2024-02-16T00:33:59.971Z,30.67
2024-02-16T00:36:31.833Z,35.73
2024-02-16T00:38:59.644Z,27.63
2024-02-16T00:41:27.307Z,31.23
2024-02-16T00:43:54.232Z,25.80
2024-02-16T00:46:21.124Z,27.43
2024-02-16T00:48:48.544Z,28.40
2024-02-16T00:51:15.530Z,30.10
2024-02-16T00:53:42.704Z,22.00
2024-02-16T00:56:10.112Z,25.10
2024-02-16T00:58:37.727Z,23.57
2024-02-16T01:01:05.724Z,22.77
2024-02-16T01:03:32.901Z,22.40
2024-02-16T01:06:00.001Z,22.13
2024-02-16T01:08:28.572Z,24.97
2024-02-16T01:10:55.577Z,23.90
2024-02-16T01:13:22.519Z,25.20
2024-02-16T01:15:49.544Z,24.40
2024-02-16T01:18:16.937Z,21.00
2024-02-16T01:20:44.056Z,19.33
2024-02-16T01:23:10.791Z,24.27
2024-02-16T01:25:37.587Z,20.43
2024-02-16T01:28:04.599Z,18.07
2024-02-16T01:30:31.444Z,19.50
2024-02-16T01:32:58.404Z,19.57
2024-02-16T01:35:25.191Z,22.57
2024-02-16T01:37:51.914Z,21.37
2024-02-16T01:40:19.060Z,18.03
2024-02-16T01:42:45.977Z,19.30
2024-02-16T01:45:16.747Z,17.50
2024-02-16T01:47:45.372Z,20.43
2024-02-16T01:50:18.942Z,21.53
2024-02-16T01:52:47.832Z,17.60
2024-02-16T01:55:16.015Z,17.77
2024-02-16T01:57:47.217Z,15.80
2024-02-16T02:00:16.478Z,17.70
2024-02-16T02:02:46.929Z,18.47
2024-02-16T02:05:14.379Z,15.27
2024-02-16T02:07:41.215Z,14.10
2024-02-16T02:10:08.491Z,19.20
2024-02-16T02:12:35.299Z,15.50
2024-02-16T02:15:02.186Z,14.47
2024-02-16T02:17:29.234Z,15.87
2024-02-16T02:19:56.923Z,13.63
2024-02-16T02:22:23.832Z,13.27
2024-02-16T02:24:50.554Z,10.97
2024-02-16T02:27:18.042Z,15.13
2024-02-16T02:29:45.599Z,16.23
2024-02-16T02:32:13.238Z,14.50
2024-02-16T02:34:40.851Z,14.67
2024-02-16T02:37:07.859Z,15.63
2024-02-16T02:39:34.777Z,12.77
2024-02-16T02:42:01.898Z,8.93
2024-02-16T02:44:28.804Z,13.40
2024-02-16T02:46:55.635Z,11.47
2024-02-16T02:49:22.511Z,10.47
2024-02-16T02:51:49.316Z,14.87
2024-02-16T02:54:16.168Z,15.93
2024-02-16T02:56:43.618Z,10.70
2024-02-16T02:59:11.785Z,11.73
2024-02-16T03:01:38.647Z,12.43
2024-02-16T03:04:06.018Z,12.67
2024-02-16T03:06:33.056Z,16.00
2024-02-16T03:08:59.838Z,10.13
2024-02-16T03:11:26.993Z,10.17
2024-02-16T03:13:54.293Z,10.70
2024-02-16T03:16:21.062Z,11.27
2024-02-16T03:18:48.002Z,9.03
2024-02-16T03:21:19.063Z,13.20
2024-02-16T03:23:46.105Z,7.57
2024-02-16T03:26:19.886Z,9.17
2024-02-16T03:28:50.674Z,12.27
2024-02-16T03:31:22.334Z,9.70
2024-02-16T03:33:50.255Z,8.63
2024-02-16T03:36:17.545Z,12.43
2024-02-16T03:38:45.231Z,13.90
2024-02-16T03:41:18.865Z,8.37
2024-02-16T03:43:45.731Z,9.00
2024-02-16T03:46:12.488Z,8.30
2024-02-16T03:48:40.793Z,10.00
2024-02-16T03:51:08.104Z,9.97
2024-02-16T03:53:35.447Z,7.77
2024-02-16T03:56:02.204Z,11.73
2024-02-16T03:58:28.886Z,8.47
2024-02-16T04:00:56.129Z,11.57
2024-02-16T04:03:22.999Z,11.40
2024-02-16T04:05:49.874Z,9.53
2024-02-16T04:08:16.657Z,11.40
2024-02-16T04:10:43.509Z,8.37
2024-02-16T04:13:10.277Z,7.47
2024-02-16T04:15:37.118Z,9.37
2024-02-16T04:18:04.290Z,7.43
2024-02-16T04:20:31.188Z,7.23
2024-02-16T04:22:57.841Z,7.67
2024-02-16T04:25:24.794Z,9.93
2024-02-16T04:27:52.039Z,10.57
2024-02-16T04:30:18.951Z,6.70
2024-02-16T04:32:45.757Z,7.13
2024-02-16T04:35:13.399Z,8.60
2024-02-16T04:37:43.143Z,8.27
2024-02-16T04:40:13.381Z,7.87
2024-02-16T04:42:43.801Z,11.27
2024-02-16T04:45:16.825Z,11.10
2024-02-16T04:47:43.569Z,8.03
2024-02-16T04:50:11.060Z,12.60
2024-02-16T04:52:41.288Z,5.57
2024-02-16T04:55:08.975Z,9.27
2024-02-16T04:57:35.799Z,9.47
2024-02-16T05:00:03.683Z,7.63
2024-02-16T05:02:30.496Z,6.37
2024-02-16T05:04:59.220Z,7.10
2024-02-16T05:07:27.168Z,8.07
2024-02-16T05:09:59.222Z,8.60
2024-02-16T05:12:27.472Z,10.70
2024-02-16T05:14:54.984Z,6.73
2024-02-16T05:17:23.788Z,11.67
2024-02-16T05:19:55.217Z,8.40
2024-02-16T05:22:23.099Z,11.13
2024-02-16T05:24:50.334Z,11.10
2024-02-16T05:27:17.731Z,13.40
2024-02-16T05:29:45.462Z,11.53
2024-02-16T05:32:13.884Z,6.73
2024-02-16T05:34:40.798Z,8.20
2024-02-16T05:37:08.101Z,7.00
2024-02-16T05:39:44.449Z,9.23
2024-02-16T05:42:11.456Z,6.37
2024-02-16T05:44:38.420Z,11.17
2024-02-16T05:47:05.326Z,9.03
2024-02-16T05:49:32.307Z,7.77
2024-02-16T05:52:18.562Z,11.90
2024-02-16T05:54:49.536Z,7.60
2024-02-16T05:57:18.118Z,7.37
2024-02-16T05:59:46.678Z,7.17
2024-02-16T06:02:13.623Z,9.27
2024-02-16T06:04:40.839Z,6.93
2024-02-16T06:07:08.042Z,10.23
2024-02-16T06:09:36.542Z,8.07
2024-02-16T06:12:05.719Z,11.10
2024-02-16T06:14:33.458Z,7.57
2024-02-16T06:17:00.778Z,8.93
2024-02-16T06:19:28.583Z,10.33
2024-02-16T06:21:56.302Z,11.67
2024-02-16T06:24:26.178Z,7.67
2024-02-16T06:26:57.089Z,10.73
2024-02-16T06:29:25.273Z,8.33
2024-02-16T06:31:53.292Z,6.53
2024-02-16T06:34:21.144Z,6.70
2024-02-16T06:36:48.110Z,8.83
2024-02-16T06:39:19.928Z,7.57
2024-02-16T06:41:47.926Z,12.60
2024-02-16T06:44:15.512Z,7.67
2024-02-16T06:46:45.281Z,7.87
2024-02-16T06:49:12.042Z,6.97
2024-02-16T06:51:38.853Z,9.87
2024-02-16T06:54:05.939Z,7.93
2024-02-16T06:56:32.946Z,9.10
2024-02-16T06:58:59.694Z,7.17
2024-02-16T07:01:28.896Z,7.30
2024-02-16T07:03:56.209Z,7.13
2024-02-16T07:06:23.089Z,7.40
2024-02-16T07:08:49.976Z,7.23
2024-02-16T07:11:16.803Z,7.63
2024-02-16T07:13:54.903Z,6.07
2024-02-16T07:16:21.914Z,11.43
2024-02-16T07:18:48.748Z,8.93
2024-02-16T07:21:15.707Z,8.53
2024-02-16T07:23:42.466Z,6.70
2024-02-16T07:26:09.282Z,6.50
2024-02-16T07:28:37.185Z,8.53
2024-02-16T07:31:04.496Z,6.63
2024-02-16T07:33:31.951Z,7.97
2024-02-16T07:35:59.190Z,6.53
2024-02-16T07:38:26.096Z,4.53
2024-02-16T07:40:52.860Z,9.67
2024-02-16T07:43:20.089Z,4.73
2024-02-16T07:45:47.330Z,8.07
2024-02-16T07:48:14.570Z,5.87
2024-02-16T07:50:41.528Z,7.17
2024-02-16T07:53:08.370Z,12.53
2024-02-16T07:55:35.137Z,9.60
2024-02-16T07:58:01.916Z,7.60
2024-02-16T08:00:29.839Z,9.97
2024-02-16T08:02:56.796Z,6.30
2024-02-16T08:05:24.598Z,9.50
2024-02-16T08:07:51.544Z,8.13
2024-02-16T08:10:24.255Z,9.57
2024-02-16T08:12:51.923Z,5.77
2024-02-16T08:15:24.526Z,8.27
2024-02-16T08:17:55.395Z,7.07
2024-02-16T08:20:22.578Z,6.70
2024-02-16T08:22:49.631Z,7.30
2024-02-16T08:25:16.458Z,9.90
2024-02-16T08:27:43.805Z,3.90
2024-02-16T08:30:11.355Z,3.97
2024-02-16T08:32:38.485Z,5.73
2024-02-16T08:35:05.740Z,6.97
2024-02-16T08:37:32.704Z,5.80
2024-02-16T08:39:59.656Z,4.63
2024-02-16T08:42:26.459Z,5.47
2024-02-16T08:44:53.275Z,8.07
2024-02-16T08:47:20.166Z,5.23
2024-02-16T08:49:47.268Z,6.33
2024-02-16T08:52:14.472Z,3.10
2024-02-16T08:54:41.713Z,4.43
2024-02-16T08:57:08.703Z,3.20
2024-02-16T08:59:35.692Z,7.60
2024-02-16T09:02:02.793Z,8.30
2024-02-16T09:04:30.181Z,3.27
2024-02-16T09:06:57.091Z,2.90
2024-02-16T09:09:24.303Z,6.43
2024-02-16T09:11:51.215Z,5.80
2024-02-16T09:14:18.099Z,5.60
2024-02-16T09:16:44.860Z,3.70
2024-02-16T09:19:11.657Z,5.67
2024-02-16T09:21:38.428Z,4.90
2024-02-16T09:24:11.429Z,4.30
2024-02-16T09:26:38.397Z,6.00
2024-02-16T09:29:05.110Z,5.60
2024-02-16T09:31:31.808Z,4.80
2024-02-16T09:33:58.661Z,5.10
2024-02-16T09:36:25.998Z,8.77
2024-02-16T09:38:52.909Z,7.63
2024-02-16T09:41:20.133Z,7.40
2024-02-16T09:43:47.654Z,3.73
2024-02-16T09:46:16.438Z,7.27
2024-02-16T09:48:49.550Z,8.87
2024-02-16T09:51:17.436Z,3.10
2024-02-16T09:53:44.357Z,6.07
2024-02-16T09:56:10.998Z,4.93
2024-02-16T09:58:37.738Z,5.97
2024-02-16T10:01:05.387Z,3.03
2024-02-16T10:03:36.335Z,4.37
2024-02-16T10:06:12.985Z,3.23
2024-02-16T10:08:53.295Z,13.63
2024-02-16T10:11:22.398Z,2.50
2024-02-16T10:13:57.598Z,7.10
2024-02-16T10:16:24.559Z,5.20
2024-02-16T10:18:51.604Z,4.70
2024-02-16T10:21:28.792Z,3.60
2024-02-16T10:24:09.692Z,4.53
2024-02-16T10:26:40.763Z,3.70
2024-02-16T10:29:10.373Z,3.33
2024-02-16T10:31:38.054Z,4.80
2024-02-16T10:34:07.649Z,3.37
2024-02-16T10:36:36.542Z,4.10
2024-02-16T10:39:06.308Z,6.27
2024-02-16T10:41:38.946Z,5.07
2024-02-16T10:44:06.898Z,3.10
2024-02-16T10:46:35.291Z,3.00
2024-02-16T10:49:07.384Z,3.13
2024-02-16T10:51:58.343Z,3.53
2024-02-16T10:54:30.289Z,4.83
2024-02-16T10:56:57.195Z,5.63
2024-02-16T10:59:24.618Z,2.97
2024-02-16T11:02:01.358Z,5.93
2024-02-16T11:04:40.756Z,3.90
2024-02-16T11:07:17.847Z,5.77
2024-02-16T11:09:46.221Z,3.77
2024-02-16T11:12:16.407Z,2.97
2024-02-16T11:14:44.834Z,3.87
2024-02-16T11:17:13.530Z,5.63
2024-02-16T11:19:47.345Z,8.23
2024-02-16T11:22:19.485Z,6.43
2024-02-16T11:24:51.472Z,6.10
2024-02-16T11:27:21.343Z,3.57
2024-02-16T11:29:49.663Z,4.17
2024-02-16T11:32:16.506Z,4.23
2024-02-16T11:34:43.630Z,3.53
2024-02-16T11:37:13.607Z,4.30
2024-02-16T11:39:42.097Z,9.17
2024-02-16T11:42:14.243Z,4.83
2024-02-16T11:44:52.553Z,4.27
2024-02-16T11:47:28.564Z,7.40
2024-02-16T11:50:13.012Z,3.23
2024-02-16T11:52:40.281Z,4.13
2024-02-16T11:55:12.256Z,4.33
2024-02-16T11:57:40.110Z,4.53
2024-02-16T12:00:16.101Z,4.03
2024-02-16T12:02:42.999Z,5.37
2024-02-16T12:05:10.352Z,4.70
2024-02-16T12:07:43.316Z,6.80
2024-02-16T12:10:12.325Z,5.93
2024-02-16T12:12:39.160Z,3.77
2024-02-16T12:15:07.080Z,5.90
2024-02-16T12:17:34.599Z,9.07
2024-02-16T12:20:01.656Z,4.17
2024-02-16T12:22:28.567Z,4.87
2024-02-16T12:24:55.281Z,6.93
2024-02-16T12:27:22.367Z,4.80
2024-02-16T12:29:49.225Z,7.53
2024-02-16T12:32:21.236Z,7.67
2024-02-16T12:34:48.591Z,5.10
2024-02-16T12:37:15.519Z,5.90
2024-02-16T12:39:42.813Z,4.83
2024-02-16T12:42:10.002Z,4.10
2024-02-16T12:44:36.916Z,5.97
2024-02-16T12:47:04.193Z,8.77
2024-02-16T12:49:31.420Z,6.37
2024-02-16T12:51:58.346Z,5.07
2024-02-16T12:54:25.236Z,6.97
2024-02-16T12:56:52.836Z,5.87
2024-02-16T12:59:19.738Z,4.93
2024-02-16T13:01:47.616Z,5.33
2024-02-16T13:04:22.062Z,7.20
2024-02-16T13:06:50.566Z,12.43
2024-02-16T13:09:21.111Z,8.83
2024-02-16T13:11:55.393Z,12.70
2024-02-16T13:14:23.012Z,10.20
2024-02-16T13:16:49.819Z,6.80
2024-02-16T13:19:19.268Z,8.10
2024-02-16T13:21:46.411Z,10.43
2024-02-16T13:24:13.269Z,7.17
2024-02-16T13:26:41.120Z,5.20
2024-02-16T13:29:07.786Z,8.10
2024-02-16T13:31:34.874Z,6.73
2024-02-16T13:34:02.268Z,8.63
2024-02-16T13:36:29.234Z,8.77
2024-02-16T13:38:56.090Z,11.73
2024-02-16T13:41:22.932Z,9.27
2024-02-16T13:43:49.791Z,7.43
2024-02-16T13:46:16.589Z,9.07
2024-02-16T13:48:44.092Z,7.37
2024-02-16T13:51:11.015Z,7.40
2024-02-16T13:53:38.272Z,8.77
2024-02-16T13:56:07.031Z,11.80
2024-02-16T13:58:35.755Z,8.07
2024-02-16T14:01:04.717Z,9.17
2024-02-16T14:03:32.208Z,9.37
2024-02-16T14:06:00.620Z,12.80
2024-02-16T14:08:28.117Z,7.20
2024-02-16T14:10:55.006Z,8.13
2024-02-16T14:13:22.650Z,10.27
2024-02-16T14:15:49.742Z,7.00
2024-02-16T14:18:22.394Z,9.57
2024-02-16T14:20:56.850Z,10.90
2024-02-16T14:23:23.593Z,9.93
2024-02-16T14:25:50.531Z,11.20
2024-02-16T14:28:17.240Z,10.77
2024-02-16T14:30:44.145Z,7.77
2024-02-16T14:33:11.634Z,9.50
2024-02-16T14:35:38.917Z,9.10
2024-02-16T14:38:06.463Z,12.47
2024-02-16T14:40:34.529Z,12.67
2024-02-16T14:43:02.629Z,11.57
2024-02-16T14:45:29.551Z,11.07
2024-02-16T14:47:56.702Z,12.03
2024-02-16T14:50:23.612Z,9.23
2024-02-16T14:52:50.515Z,12.00
2024-02-16T14:55:17.799Z,15.90
2024-02-16T14:57:48.130Z,13.17
2024-02-16T15:00:15.465Z,11.30
2024-02-16T15:02:43.905Z,13.87
2024-02-16T15:05:11.029Z,11.57
2024-02-16T15:07:37.815Z,9.90
2024-02-16T15:10:05.052Z,9.03
2024-02-16T15:12:34.884Z,8.03
2024-02-16T15:15:01.790Z,10.03
2024-02-16T15:17:28.842Z,6.97
2024-02-16T15:19:56.057Z,8.27
2024-02-16T15:22:24.031Z,8.43
2024-02-16T15:24:51.140Z,6.63
2024-02-16T15:27:18.158Z,5.80
2024-02-16T15:29:45.971Z,7.20
2024-02-16T15:32:12.789Z,5.20
2024-02-16T15:34:40.459Z,5.77
2024-02-16T15:37:07.493Z,5.73
2024-02-16T15:39:34.412Z,6.33
2024-02-16T15:42:01.433Z,6.90
2024-02-16T15:44:28.250Z,7.97
2024-02-16T15:46:56.172Z,7.80
2024-02-16T15:49:23.149Z,9.50
2024-02-16T15:51:50.180Z,6.63
2024-02-16T15:54:17.068Z,7.17
2024-02-16T15:56:43.854Z,10.03
2024-02-16T15:59:10.880Z,6.40
2024-02-16T16:01:38.389Z,7.83
2024-02-16T16:04:05.680Z,7.33
2024-02-16T16:06:32.642Z,7.23
2024-02-16T16:08:59.576Z,6.80
2024-02-16T16:11:26.456Z,11.27
2024-02-16T16:13:53.287Z,6.30
2024-02-16T16:16:20.069Z,5.77
2024-02-16T16:18:47.628Z,5.77
2024-02-16T16:21:14.441Z,8.23
2024-02-16T16:23:41.314Z,8.80
2024-02-16T16:26:08.899Z,7.07
2024-02-16T16:28:35.789Z,6.63
2024-02-16T16:31:02.635Z,10.93
2024-02-16T16:33:29.859Z,9.47
2024-02-16T16:35:56.962Z,11.90
2024-02-16T16:38:24.103Z,8.57
2024-02-16T16:40:50.908Z,6.83
2024-02-16T16:43:19.300Z,6.07
2024-02-16T16:45:46.133Z,8.17
2024-02-16T16:48:13.317Z,7.57
2024-02-16T16:50:41.199Z,6.97
2024-02-16T16:53:08.027Z,7.33
2024-02-16T16:55:34.869Z,7.63
2024-02-16T16:58:01.581Z,6.53
2024-02-16T17:00:28.731Z,6.93
2024-02-16T17:02:55.793Z,6.93
2024-02-16T17:05:22.644Z,10.73
2024-02-16T17:07:49.839Z,7.83
2024-02-16T17:10:17.168Z,7.30
2024-02-16T17:12:45.749Z,12.20
2024-02-16T17:15:19.798Z,9.23
2024-02-16T17:17:54.018Z,8.53
2024-02-16T17:20:26.324Z,8.40
2024-02-16T17:22:54.900Z,7.97
2024-02-16T17:25:23.510Z,5.93
2024-02-16T17:27:51.160Z,9.73
2024-02-16T17:30:21.156Z,10.47
2024-02-16T17:32:52.845Z,11.33
2024-02-16T17:35:20.387Z,11.20
2024-02-16T17:37:47.462Z,13.33
2024-02-16T17:40:15.047Z,15.07
2024-02-16T17:42:42.236Z,13.13
2024-02-16T17:45:10.096Z,13.67
2024-02-16T17:47:38.990Z,17.90
2024-02-16T17:50:07.318Z,15.60
2024-02-16T17:52:34.276Z,14.97
2024-02-16T17:55:05.450Z,13.00
2024-02-16T17:57:35.186Z,15.87
2024-02-16T18:00:02.166Z,21.10
2024-02-16T18:02:39.070Z,16.97
2024-02-16T18:05:08.678Z,16.27
2024-02-16T18:07:35.563Z,13.67
2024-02-16T18:10:05.860Z,17.90
2024-02-16T18:12:33.970Z,14.23
2024-02-16T18:15:01.042Z,15.80
2024-02-16T18:17:27.936Z,15.13
2024-02-16T18:19:56.023Z,10.53
2024-02-16T18:22:23.377Z,14.50
2024-02-16T18:24:50.285Z,10.93
2024-02-16T18:27:18.476Z,13.33
2024-02-16T18:29:45.733Z,16.87
2024-02-16T18:32:13.480Z,10.40
2024-02-16T18:34:41.088Z,10.20
2024-02-16T18:37:08.176Z,8.63
2024-02-16T18:39:35.101Z,8.07
2024-02-16T18:42:02.330Z,15.00
2024-02-16T18:44:29.327Z,14.33
2024-02-16T18:46:56.881Z,9.87
2024-02-16T18:49:24.092Z,13.60
2024-02-16T18:51:51.170Z,10.43
2024-02-16T18:54:18.199Z,8.23
2024-02-16T18:57:01.916Z,11.43
2024-02-16T18:59:29.584Z,14.83
2024-02-16T19:02:03.077Z,13.00
2024-02-16T19:04:31.207Z,10.10
2024-02-16T19:06:58.736Z,10.73
2024-02-16T19:09:26.166Z,10.87
2024-02-16T19:11:56.678Z,13.03
2024-02-16T19:14:25.257Z,11.60
2024-02-16T19:16:53.385Z,15.27
2024-02-16T19:19:20.594Z,17.50
2024-02-16T19:21:55.256Z,16.60
2024-02-16T19:24:29.172Z,16.53
2024-02-16T19:27:04.754Z,17.13
2024-02-16T19:29:31.478Z,15.40
2024-02-16T19:31:58.277Z,18.10
2024-02-16T19:34:26.358Z,20.00
2024-02-16T19:36:53.339Z,22.97
2024-02-16T19:39:20.789Z,12.43
2024-02-16T19:41:48.743Z,18.50
2024-02-16T19:44:22.201Z,17.47
2024-02-16T19:46:50.053Z,16.27
2024-02-16T19:49:16.934Z,17.57
2024-02-16T19:51:43.838Z,16.27
2024-02-16T19:54:10.908Z,11.60
2024-02-16T19:56:37.638Z,12.40
2024-02-16T19:59:04.369Z,11.83
2024-02-16T20:01:31.258Z,9.80
2024-02-16T20:03:58.322Z,10.73
2024-02-16T20:06:29.560Z,10.33
2024-02-16T20:08:56.997Z,10.10
2024-02-16T20:11:24.089Z,10.23
2024-02-16T20:13:52.185Z,9.03
2024-02-16T20:16:19.282Z,8.23
2024-02-16T20:18:46.662Z,8.47
2024-02-16T20:21:13.583Z,9.93
2024-02-16T20:23:40.536Z,11.67
2024-02-16T20:26:07.536Z,8.80
2024-02-16T20:28:34.244Z,7.50
2024-02-16T20:31:05.597Z,13.33
2024-02-16T20:33:33.199Z,9.57
2024-02-16T20:36:00.124Z,8.03
2024-02-16T20:38:26.978Z,10.20
2024-02-16T20:40:53.664Z,13.07
2024-02-16T20:43:20.431Z,9.73
2024-02-16T20:45:47.211Z,11.40
2024-02-16T20:48:14.122Z,8.40
2024-02-16T20:50:41.030Z,12.90
2024-02-16T20:53:07.836Z,11.47
2024-02-16T20:55:34.966Z,13.97
2024-02-16T20:58:01.819Z,17.40
2024-02-16T21:00:28.622Z,16.50
2024-02-16T21:02:55.417Z,19.50
2024-02-16T21:05:25.248Z,16.70
2024-02-16T21:07:57.816Z,20.43
2024-02-16T21:10:24.580Z,20.27
2024-02-16T21:12:51.478Z,25.43
2024-02-16T21:15:18.512Z,24.40
2024-02-16T21:17:45.893Z,23.80
2024-02-16T21:20:15.568Z,25.60
2024-02-16T21:22:42.363Z,31.30
2024-02-16T21:25:09.484Z,30.07
2024-02-16T21:27:36.316Z,29.80
2024-02-16T21:30:03.367Z,25.77
2024-02-16T21:32:31.130Z,27.90
2024-02-16T21:34:58.647Z,26.57
2024-02-16T21:37:25.606Z,26.37
2024-02-16T21:39:52.570Z,33.73
2024-02-16T21:42:19.466Z,27.37
2024-02-16T21:44:46.252Z,29.40
2024-02-16T21:47:14.629Z,29.30
2024-02-16T21:49:41.887Z,28.73
2024-02-16T21:52:08.799Z,31.13
2024-02-16T21:54:36.784Z,37.97
2024-02-16T21:57:04.119Z,33.23
2024-02-16T21:59:30.884Z,33.10
2024-02-16T22:01:57.680Z,31.80
2024-02-16T22:04:26.142Z,25.67
2024-02-16T22:06:54.639Z,23.63
2024-02-16T22:09:21.908Z,30.57
2024-02-16T22:11:48.804Z,30.37
2024-02-16T22:14:15.995Z,29.90
2024-02-16T22:16:42.769Z,26.17
2024-02-16T22:19:09.876Z,27.20
2024-02-16T22:21:42.461Z,29.10
2024-02-16T22:24:11.620Z,35.10
2024-02-16T22:26:41.306Z,26.20
2024-02-16T22:29:08.537Z,37.77
2024-02-16T22:31:41.304Z,34.07
2024-02-16T22:34:10.789Z,31.53
2024-02-16T22:36:37.758Z,34.57
2024-02-16T22:39:05.575Z,37.00
2024-02-16T22:41:32.668Z,32.20
2024-02-16T22:43:59.924Z,31.43
2024-02-16T22:46:26.701Z,31.80
2024-02-16T22:48:53.649Z,36.53
2024-02-16T22:51:20.625Z,30.33
2024-02-16T22:53:47.682Z,32.57
2024-02-16T22:56:14.459Z,29.23
2024-02-16T22:58:41.270Z,25.03
2024-02-16T23:01:08.222Z,32.00
2024-02-16T23:03:35.274Z,21.57
2024-02-16T23:06:04.393Z,21.47
2024-02-16T23:08:31.716Z,21.30
2024-02-16T23:10:59.009Z,14.70
2024-02-16T23:13:26.851Z,14.80
2024-02-16T23:15:53.841Z,14.73
2024-02-16T23:18:21.454Z,10.17
2024-02-16T23:20:48.705Z,8.47
2024-02-16T23:23:16.321Z,5.67
2024-02-16T23:25:44.644Z,6.00
2024-02-16T23:28:16.234Z,6.77
2024-02-16T23:30:43.644Z,4.03
2024-02-16T23:33:14.078Z,6.50
2024-02-16T23:35:41.272Z,7.10
2024-02-16T23:38:08.087Z,4.10
2024-02-16T23:40:34.985Z,6.57
2024-02-16T23:43:01.793Z,3.60
2024-02-16T23:45:36.083Z,3.50
2024-02-16T23:48:03.180Z,3.20
2024-02-16T23:50:31.767Z,2.77
2024-02-16T23:52:59.178Z,2.90
2024-02-16T23:55:26.553Z,5.77
2024-02-16T23:57:54.464Z,6.10
